Upstream stations:
Downstream station:
SHEF ID: YUKO2 North Canadian River near Yukon,
STATION TYPE:
Regulating: Stage = 11.00, Flow = 3611
STAGE RIV-FLOW WTR-TEMP BAT-LOAD
ft cfs F volt
Ccp-Rev Ccp-Rev Ccp-Rev Ccp-Rev
(US/Central)
03/22 00:00 ---- ---- ---- ----
03/22 01:00 ---- ---- ---- ----
03/22 02:00 ---- ---- ---- ----
03/22 03:00 ---- ---- ---- ----
03/22 04:00 ---- ---- 53.60 ----
03/22 05:00 4.66 790 53.60 12.68
03/22 06:00 4.57 761 53.60 12.69
03/22 07:00 4.42 713 53.60 12.68
03/22 08:00 4.24 658 53.60 12.67
03/22 09:00 4.03 597 53.60 12.68
03/22 10:00 3.79 530 53.60 12.89
03/22 11:00 3.57 471 53.60 13.44
03/22 12:00 3.36 417 53.60 13.69
03/22 13:00 3.16 369 53.60 13.84
03/22 14:00 3.02 336 53.60 13.78
03/22 15:00 2.87 303 53.60 13.76
03/22 16:00 2.76 279 53.60 13.85
03/22 17:00 2.65 256 53.60 13.87
03/22 18:00 2.55 235 53.60 13.75
03/22 19:00 2.48 221 53.60 13.59
03/22 20:00 2.41 208 53.60 13.36
03/22 21:00 2.36 198 53.60 13.16
03/22 22:00 2.30 187 53.60 13.01
03/22 23:00 2.26 179 47.91 12.93